sensor_id;sensor_type;location;lat;lon;timestamp;temperature;humidity
15131;DHT22;7666;50.920;4.628;2022-07-22T00:01:28;16.40;99.90
15131;DHT22;7666;50.920;4.628;2022-07-22T00:04:14;16.40;99.90
15131;DHT22;7666;50.920;4.628;2022-07-22T00:07:00;16.30;99.90
15131;DHT22;7666;50.920;4.628;2022-07-22T00:09:46;16.20;99.90
15131;DHT22;7666;50.920;4.628;2022-07-22T00:12:33;16.10;99.90
15131;DHT22;7666;50.920;4.628;2022-07-22T00:15:19;16.10;99.90
15131;DHT22;7666;50.920;4.628;2022-07-22T00:18:05;16.00;99.90
15131;DHT22;7666;50.920;4.628;2022-07-22T00:20:51;15.90;99.90
15131;DHT22;7666;50.920;4.628;2022-07-22T00:23:37;15.90;99.90
15131;DHT22;7666;50.920;4.628;2022-07-22T00:26:23;15.90;99.90
15131;DHT22;7666;50.920;4.628;2022-07-22T00:29:10;15.90;99.90
15131;DHT22;7666;50.920;4.628;2022-07-22T00:31:55;15.90;99.90
15131;DHT22;7666;50.920;4.628;2022-07-22T00:34:41;15.90;99.90
15131;DHT22;7666;50.920;4.628;2022-07-22T00:37:27;15.90;99.90
15131;DHT22;7666;50.920;4.628;2022-07-22T00:40:13;15.90;99.90
15131;DHT22;7666;50.920;4.628;2022-07-22T00:43:00;15.80;99.90
15131;DHT22;7666;50.920;4.628;2022-07-22T00:45:46;15.70;99.90
15131;DHT22;7666;50.920;4.628;2022-07-22T00:48:32;15.70;99.90
15131;DHT22;7666;50.920;4.628;2022-07-22T00:51:19;15.60;99.90
15131;DHT22;7666;50.920;4.628;2022-07-22T00:54:06;15.60;99.90
15131;DHT22;7666;50.920;4.628;2022-07-22T00:56:52;15.60;99.90
15131;DHT22;7666;50.920;4.628;2022-07-22T00:59:38;15.60;99.90
15131;DHT22;7666;50.920;4.628;2022-07-22T01:02:24;15.60;99.90
15131;DHT22;7666;50.920;4.628;2022-07-22T01:05:10;15.50;99.90
15131;DHT22;7666;50.920;4.628;2022-07-22T01:07:56;15.50;99.90
15131;DHT22;7666;50.920;4.628;2022-07-22T01:10:42;15.40;99.90
15131;DHT22;7666;50.920;4.628;2022-07-22T01:13:28;15.40;99.90
15131;DHT22;7666;50.920;4.628;2022-07-22T01:16:15;15.30;99.90
15131;DHT22;7666;50.920;4.628;2022-07-22T01:19:03;15.40;99.90
15131;DHT22;7666;50.920;4.628;2022-07-22T01:21:49;15.30;99.90
15131;DHT22;7666;50.920;4.628;2022-07-22T01:24:35;15.30;99.90
15131;DHT22;7666;50.920;4.628;2022-07-22T01:27:21;15.30;99.90
15131;DHT22;7666;50.920;4.628;2022-07-22T01:30:07;15.30;99.90
15131;DHT22;7666;50.920;4.628;2022-07-22T01:32:54;15.20;99.90
15131;DHT22;7666;50.920;4.628;2022-07-22T01:35:39;15.20;99.90
15131;DHT22;7666;50.920;4.628;2022-07-22T01:38:26;15.20;99.90
15131;DHT22;7666;50.920;4.628;2022-07-22T01:41:12;15.20;99.90
15131;DHT22;7666;50.920;4.628;2022-07-22T01:43:58;15.10;99.90
15131;DHT22;7666;50.920;4.628;2022-07-22T01:46:44;15.10;99.90
15131;DHT22;7666;50.920;4.628;2022-07-22T01:49:30;15.10;99.90
15131;DHT22;7666;50.920;4.628;2022-07-22T01:52:16;15.00;99.90
15131;DHT22;7666;50.920;4.628;2022-07-22T01:55:02;15.00;99.90
15131;DHT22;7666;50.920;4.628;2022-07-22T01:57:48;15.00;99.90
15131;DHT22;7666;50.920;4.628;2022-07-22T02:00:35;15.00;99.90
15131;DHT22;7666;50.920;4.628;2022-07-22T02:03:21;14.90;99.90
15131;DHT22;7666;50.920;4.628;2022-07-22T02:06:07;14.80;99.90
15131;DHT22;7666;50.920;4.628;2022-07-22T02:08:53;14.60;99.90
15131;DHT22;7666;50.920;4.628;2022-07-22T02:11:39;14.60;99.90
15131;DHT22;7666;50.920;4.628;2022-07-22T02:14:25;14.50;99.90
15131;DHT22;7666;50.920;4.628;2022-07-22T02:17:11;14.50;99.90
15131;DHT22;7666;50.920;4.628;2022-07-22T02:19:57;14.60;99.90
15131;DHT22;7666;50.920;4.628;2022-07-22T02:22:43;14.60;99.90
15131;DHT22;7666;50.920;4.628;2022-07-22T02:25:29;14.60;99.90
15131;DHT22;7666;50.920;4.628;2022-07-22T02:28:15;14.60;99.90
15131;DHT22;7666;50.920;4.628;2022-07-22T02:31:01;14.60;99.90
15131;DHT22;7666;50.920;4.628;2022-07-22T02:33:47;14.60;99.90
15131;DHT22;7666;50.920;4.628;2022-07-22T02:36:33;14.70;99.90
15131;DHT22;7666;50.920;4.628;2022-07-22T02:39:19;14.60;99.90
15131;DHT22;7666;50.920;4.628;2022-07-22T02:42:05;14.60;99.90
15131;DHT22;7666;50.920;4.628;2022-07-22T02:44:51;14.60;99.90
15131;DHT22;7666;50.920;4.628;2022-07-22T02:47:48;14.60;99.90
15131;DHT22;7666;50.920;4.628;2022-07-22T02:50:35;14.50;99.90
15131;DHT22;7666;50.920;4.628;2022-07-22T02:53:22;14.50;99.90
15131;DHT22;7666;50.920;4.628;2022-07-22T02:56:08;14.40;99.90
15131;DHT22;7666;50.920;4.628;2022-07-22T02:58:54;14.40;99.90
15131;DHT22;7666;50.920;4.628;2022-07-22T03:01:40;14.40;99.90
15131;DHT22;7666;50.920;4.628;2022-07-22T03:04:26;14.40;99.90
15131;DHT22;7666;50.920;4.628;2022-07-22T03:07:12;14.40;99.90
15131;DHT22;7666;50.920;4.628;2022-07-22T03:09:58;14.40;99.90
15131;DHT22;7666;50.920;4.628;2022-07-22T03:12:44;14.40;99.90
15131;DHT22;7666;50.920;4.628;2022-07-22T03:15:30;14.30;99.90
15131;DHT22;7666;50.920;4.628;2022-07-22T03:18:16;14.30;99.90
15131;DHT22;7666;50.920;4.628;2022-07-22T03:21:02;14.30;99.90
15131;DHT22;7666;50.920;4.628;2022-07-22T03:23:48;14.20;99.90
15131;DHT22;7666;50.920;4.628;2022-07-22T03:26:39;14.20;99.90
15131;DHT22;7666;50.920;4.628;2022-07-22T03:29:25;14.20;99.90
15131;DHT22;7666;50.920;4.628;2022-07-22T03:32:11;14.20;99.90
15131;DHT22;7666;50.920;4.628;2022-07-22T03:34:57;14.20;99.90
15131;DHT22;7666;50.920;4.628;2022-07-22T03:37:43;14.10;99.90
15131;DHT22;7666;50.920;4.628;2022-07-22T03:40:29;14.10;99.90
15131;DHT22;7666;50.920;4.628;2022-07-22T03:43:15;14.10;99.90
15131;DHT22;7666;50.920;4.628;2022-07-22T03:46:00;14.00;99.90
15131;DHT22;7666;50.920;4.628;2022-07-22T03:48:46;13.90;99.90
15131;DHT22;7666;50.920;4.628;2022-07-22T03:51:32;13.90;99.90
15131;DHT22;7666;50.920;4.628;2022-07-22T03:54:18;14.00;99.90
15131;DHT22;7666;50.920;4.628;2022-07-22T03:57:04;13.90;99.90
15131;DHT22;7666;50.920;4.628;2022-07-22T03:59:50;13.90;99.90
15131;DHT22;7666;50.920;4.628;2022-07-22T04:02:36;13.90;99.90
15131;DHT22;7666;50.920;4.628;2022-07-22T04:05:22;13.90;99.90
15131;DHT22;7666;50.920;4.628;2022-07-22T04:08:08;13.90;99.90
15131;DHT22;7666;50.920;4.628;2022-07-22T04:10:54;13.90;99.90
15131;DHT22;7666;50.920;4.628;2022-07-22T04:13:40;14.00;99.90
15131;DHT22;7666;50.920;4.628;2022-07-22T04:16:26;14.00;99.90
15131;DHT22;7666;50.920;4.628;2022-07-22T04:19:12;14.10;99.90
15131;DHT22;7666;50.920;4.628;2022-07-22T04:21:59;14.10;99.90
15131;DHT22;7666;50.920;4.628;2022-07-22T04:24:45;14.10;99.90
15131;DHT22;7666;50.920;4.628;2022-07-22T04:27:31;14.20;99.90
15131;DHT22;7666;50.920;4.628;2022-07-22T04:30:17;14.20;99.90
15131;DHT22;7666;50.920;4.628;2022-07-22T04:33:03;14.20;99.90
15131;DHT22;7666;50.920;4.628;2022-07-22T04:35:49;14.20;99.90
15131;DHT22;7666;50.920;4.628;2022-07-22T04:38:35;14.30;99.90
15131;DHT22;7666;50.920;4.628;2022-07-22T04:41:20;14.30;99.90
15131;DHT22;7666;50.920;4.628;2022-07-22T04:44:06;14.50;99.90
15131;DHT22;7666;50.920;4.628;2022-07-22T04:46:52;14.50;99.90
15131;DHT22;7666;50.920;4.628;2022-07-22T04:49:38;14.70;99.90
15131;DHT22;7666;50.920;4.628;2022-07-22T04:52:24;14.80;99.90
15131;DHT22;7666;50.920;4.628;2022-07-22T04:55:10;15.00;99.90
15131;DHT22;7666;50.920;4.628;2022-07-22T04:57:57;15.10;99.90
15131;DHT22;7666;50.920;4.628;2022-07-22T05:00:43;15.20;99.90
15131;DHT22;7666;50.920;4.628;2022-07-22T05:03:29;15.30;99.90
15131;DHT22;7666;50.920;4.628;2022-07-22T05:06:15;15.40;99.90
15131;DHT22;7666;50.920;4.628;2022-07-22T05:09:01;15.60;99.90
15131;DHT22;7666;50.920;4.628;2022-07-22T05:11:46;16.20;99.90
15131;DHT22;7666;50.920;4.628;2022-07-22T05:14:32;17.00;99.90
15131;DHT22;7666;50.920;4.628;2022-07-22T05:17:18;17.80;99.90
15131;DHT22;7666;50.920;4.628;2022-07-22T05:20:05;18.70;99.90
15131;DHT22;7666;50.920;4.628;2022-07-22T05:22:51;19.60;99.90
15131;DHT22;7666;50.920;4.628;2022-07-22T05:25:37;20.20;99.90
15131;DHT22;7666;50.920;4.628;2022-07-22T05:28:23;20.70;99.90
15131;DHT22;7666;50.920;4.628;2022-07-22T05:31:09;21.50;99.90
15131;DHT22;7666;50.920;4.628;2022-07-22T05:33:56;22.20;99.90
15131;DHT22;7666;50.920;4.628;2022-07-22T05:36:42;22.60;99.90
15131;DHT22;7666;50.920;4.628;2022-07-22T05:39:28;22.90;99.90
15131;DHT22;7666;50.920;4.628;2022-07-22T05:42:14;23.20;99.90
15131;DHT22;7666;50.920;4.628;2022-07-22T05:45:00;23.80;99.90
15131;DHT22;7666;50.920;4.628;2022-07-22T05:47:46;24.30;99.90
15131;DHT22;7666;50.920;4.628;2022-07-22T05:50:32;25.10;99.90
15131;DHT22;7666;50.920;4.628;2022-07-22T05:53:18;25.10;99.90
15131;DHT22;7666;50.920;4.628;2022-07-22T05:56:04;25.60;99.90
15131;DHT22;7666;50.920;4.628;2022-07-22T05:58:50;25.90;99.90
15131;DHT22;7666;50.920;4.628;2022-07-22T06:01:36;26.40;99.90
15131;DHT22;7666;50.920;4.628;2022-07-22T06:04:22;26.20;99.90
15131;DHT22;7666;50.920;4.628;2022-07-22T06:07:08;26.40;99.90
15131;DHT22;7666;50.920;4.628;2022-07-22T06:09:54;26.80;99.90
15131;DHT22;7666;50.920;4.628;2022-07-22T06:12:40;27.30;99.90
15131;DHT22;7666;50.920;4.628;2022-07-22T06:15:26;27.70;99.90
15131;DHT22;7666;50.920;4.628;2022-07-22T06:18:12;27.90;99.90
15131;DHT22;7666;50.920;4.628;2022-07-22T06:20:58;28.60;99.90
15131;DHT22;7666;50.920;4.628;2022-07-22T06:23:44;29.10;99.90
15131;DHT22;7666;50.920;4.628;2022-07-22T06:26:30;29.30;99.90
15131;DHT22;7666;50.920;4.628;2022-07-22T06:29:16;29.20;99.90
15131;DHT22;7666;50.920;4.628;2022-07-22T06:32:03;29.10;99.90
15131;DHT22;7666;50.920;4.628;2022-07-22T06:34:49;29.20;99.90
15131;DHT22;7666;50.920;4.628;2022-07-22T06:37:35;29.70;99.90
15131;DHT22;7666;50.920;4.628;2022-07-22T06:40:21;29.70;99.90
15131;DHT22;7666;50.920;4.628;2022-07-22T06:43:07;29.60;99.90
15131;DHT22;7666;50.920;4.628;2022-07-22T06:45:53;29.10;99.90
15131;DHT22;7666;50.920;4.628;2022-07-22T06:48:39;28.90;99.90
15131;DHT22;7666;50.920;4.628;2022-07-22T06:51:25;28.70;99.90
15131;DHT22;7666;50.920;4.628;2022-07-22T06:54:11;28.50;99.90
15131;DHT22;7666;50.920;4.628;2022-07-22T06:56:57;27.80;99.90
15131;DHT22;7666;50.920;4.628;2022-07-22T06:59:43;27.50;99.90
15131;DHT22;7666;50.920;4.628;2022-07-22T07:02:29;27.50;99.90
15131;DHT22;7666;50.920;4.628;2022-07-22T07:05:15;27.50;99.90
15131;DHT22;7666;50.920;4.628;2022-07-22T07:08:01;27.60;99.90
15131;DHT22;7666;50.920;4.628;2022-07-22T07:10:48;27.50;99.90
15131;DHT22;7666;50.920;4.628;2022-07-22T07:13:34;26.70;99.90
15131;DHT22;7666;50.920;4.628;2022-07-22T07:16:20;26.00;99.90
15131;DHT22;7666;50.920;4.628;2022-07-22T07:19:06;25.50;99.90
15131;DHT22;7666;50.920;4.628;2022-07-22T07:21:51;25.50;99.90
15131;DHT22;7666;50.920;4.628;2022-07-22T07:24:37;25.20;99.90
15131;DHT22;7666;50.920;4.628;2022-07-22T07:27:23;24.50;99.90
15131;DHT22;7666;50.920;4.628;2022-07-22T07:30:11;23.90;99.90
15131;DHT22;7666;50.920;4.628;2022-07-22T07:32:57;23.60;99.90
15131;DHT22;7666;50.920;4.628;2022-07-22T07:35:43;22.70;99.90
15131;DHT22;7666;50.920;4.628;2022-07-22T07:38:29;22.70;99.90
15131;DHT22;7666;50.920;4.628;2022-07-22T07:41:16;22.50;99.90
15131;DHT22;7666;50.920;4.628;2022-07-22T07:44:02;22.00;99.90
15131;DHT22;7666;50.920;4.628;2022-07-22T07:46:48;22.00;99.90
15131;DHT22;7666;50.920;4.628;2022-07-22T07:49:34;22.10;99.90
15131;DHT22;7666;50.920;4.628;2022-07-22T07:52:20;21.60;99.90
15131;DHT22;7666;50.920;4.628;2022-07-22T07:55:06;21.10;99.90
15131;DHT22;7666;50.920;4.628;2022-07-22T07:57:53;20.90;99.90
15131;DHT22;7666;50.920;4.628;2022-07-22T08:00:39;21.10;99.90
15131;DHT22;7666;50.920;4.628;2022-07-22T08:03:27;21.10;99.90
15131;DHT22;7666;50.920;4.628;2022-07-22T08:06:13;21.00;99.90
15131;DHT22;7666;50.920;4.628;2022-07-22T08:08:59;20.80;99.90
15131;DHT22;7666;50.920;4.628;2022-07-22T08:11:44;20.60;99.90
15131;DHT22;7666;50.920;4.628;2022-07-22T08:14:31;20.50;99.90
15131;DHT22;7666;50.920;4.628;2022-07-22T08:17:17;20.60;99.90
15131;DHT22;7666;50.920;4.628;2022-07-22T08:20:04;21.10;99.90
15131;DHT22;7666;50.920;4.628;2022-07-22T08:22:51;21.30;99.90
15131;DHT22;7666;50.920;4.628;2022-07-22T08:25:37;21.40;99.90
15131;DHT22;7666;50.920;4.628;2022-07-22T08:28:23;21.60;99.90
15131;DHT22;7666;50.920;4.628;2022-07-22T08:31:09;21.60;99.90
15131;DHT22;7666;50.920;4.628;2022-07-22T08:33:55;21.50;99.90
15131;DHT22;7666;50.920;4.628;2022-07-22T08:36:41;21.40;99.90
15131;DHT22;7666;50.920;4.628;2022-07-22T08:39:26;21.40;99.90
15131;DHT22;7666;50.920;4.628;2022-07-22T08:42:12;21.30;99.90
15131;DHT22;7666;50.920;4.628;2022-07-22T08:44:59;21.30;99.90
15131;DHT22;7666;50.920;4.628;2022-07-22T08:47:50;21.30;99.90
15131;DHT22;7666;50.920;4.628;2022-07-22T08:50:36;21.50;99.90
15131;DHT22;7666;50.920;4.628;2022-07-22T08:53:22;21.60;99.90
15131;DHT22;7666;50.920;4.628;2022-07-22T08:56:08;21.90;99.90
15131;DHT22;7666;50.920;4.628;2022-07-22T08:58:54;22.00;99.90
15131;DHT22;7666;50.920;4.628;2022-07-22T09:02:07;22.00;99.90
15131;DHT22;7666;50.920;4.628;2022-07-22T09:05:03;22.10;99.90
15131;DHT22;7666;50.920;4.628;2022-07-22T09:07:49;22.40;99.90
15131;DHT22;7666;50.920;4.628;2022-07-22T09:10:35;22.60;99.90
15131;DHT22;7666;50.920;4.628;2022-07-22T09:13:23;22.20;99.90
15131;DHT22;7666;50.920;4.628;2022-07-22T09:16:09;22.00;99.90
15131;DHT22;7666;50.920;4.628;2022-07-22T09:18:55;22.00;99.90
15131;DHT22;7666;50.920;4.628;2022-07-22T09:21:44;22.30;99.90
15131;DHT22;7666;50.920;4.628;2022-07-22T09:24:33;22.40;99.90
15131;DHT22;7666;50.920;4.628;2022-07-22T09:27:24;22.60;99.90
15131;DHT22;7666;50.920;4.628;2022-07-22T09:30:22;22.60;99.90
15131;DHT22;7666;50.920;4.628;2022-07-22T09:33:09;22.50;99.90
15131;DHT22;7666;50.920;4.628;2022-07-22T09:36:02;22.70;99.90
15131;DHT22;7666;50.920;4.628;2022-07-22T09:38:49;23.00;99.90
15131;DHT22;7666;50.920;4.628;2022-07-22T09:41:35;22.90;99.90
15131;DHT22;7666;50.920;4.628;2022-07-22T09:44:41;22.70;99.90
15131;DHT22;7666;50.920;4.628;2022-07-22T09:47:28;22.50;99.90
15131;DHT22;7666;50.920;4.628;2022-07-22T09:50:26;22.60;99.90
15131;DHT22;7666;50.920;4.628;2022-07-22T09:53:13;22.70;99.90
15131;DHT22;7666;50.920;4.628;2022-07-22T09:56:01;22.90;99.90
15131;DHT22;7666;50.920;4.628;2022-07-22T09:58:47;22.80;99.90
15131;DHT22;7666;50.920;4.628;2022-07-22T10:01:33;22.70;99.90
15131;DHT22;7666;50.920;4.628;2022-07-22T10:04:20;22.90;99.90
15131;DHT22;7666;50.920;4.628;2022-07-22T10:07:07;22.90;99.90
15131;DHT22;7666;50.920;4.628;2022-07-22T10:09:53;22.70;99.90
15131;DHT22;7666;50.920;4.628;2022-07-22T10:12:40;22.30;99.90
15131;DHT22;7666;50.920;4.628;2022-07-22T10:15:28;22.00;99.90
15131;DHT22;7666;50.920;4.628;2022-07-22T10:18:16;22.10;99.90
15131;DHT22;7666;50.920;4.628;2022-07-22T10:21:09;21.90;99.90
15131;DHT22;7666;50.920;4.628;2022-07-22T10:24:15;22.10;99.90
15131;DHT22;7666;50.920;4.628;2022-07-22T10:27:09;22.30;99.90
15131;DHT22;7666;50.920;4.628;2022-07-22T10:29:55;22.70;99.90
15131;DHT22;7666;50.920;4.628;2022-07-22T10:32:45;23.00;99.90
15131;DHT22;7666;50.920;4.628;2022-07-22T10:36:00;23.40;99.90
15131;DHT22;7666;50.920;4.628;2022-07-22T10:39:09;23.90;99.90
15131;DHT22;7666;50.920;4.628;2022-07-22T10:41:55;24.20;99.90
15131;DHT22;7666;50.920;4.628;2022-07-22T10:44:48;24.10;99.90
15131;DHT22;7666;50.920;4.628;2022-07-22T10:47:52;24.50;99.90
15131;DHT22;7666;50.920;4.628;2022-07-22T10:50:40;24.50;99.90
15131;DHT22;7666;50.920;4.628;2022-07-22T10:56:41;24.20;99.90
15131;DHT22;7666;50.920;4.628;2022-07-22T10:59:27;24.30;99.90
15131;DHT22;7666;50.920;4.628;2022-07-22T11:02:14;24.20;99.90
15131;DHT22;7666;50.920;4.628;2022-07-22T11:05:02;23.90;99.90
15131;DHT22;7666;50.920;4.628;2022-07-22T11:07:48;24.00;99.90
15131;DHT22;7666;50.920;4.628;2022-07-22T11:10:34;24.50;99.90
15131;DHT22;7666;50.920;4.628;2022-07-22T11:13:34;24.20;99.90
15131;DHT22;7666;50.920;4.628;2022-07-22T11:16:22;24.30;99.90
15131;DHT22;7666;50.920;4.628;2022-07-22T11:19:08;24.30;99.90
15131;DHT22;7666;50.920;4.628;2022-07-22T11:22:02;24.30;99.90
15131;DHT22;7666;50.920;4.628;2022-07-22T11:24:49;24.50;99.90
15131;DHT22;7666;50.920;4.628;2022-07-22T11:27:35;24.70;99.90
15131;DHT22;7666;50.920;4.628;2022-07-22T11:30:21;24.80;99.90
15131;DHT22;7666;50.920;4.628;2022-07-22T11:33:07;24.40;99.90
15131;DHT22;7666;50.920;4.628;2022-07-22T11:36:04;24.10;99.90
15131;DHT22;7666;50.920;4.628;2022-07-22T11:38:50;24.10;99.90
15131;DHT22;7666;50.920;4.628;2022-07-22T11:41:38;24.10;99.90
15131;DHT22;7666;50.920;4.628;2022-07-22T11:44:27;24.20;99.90
15131;DHT22;7666;50.920;4.628;2022-07-22T11:47:13;24.30;99.90
15131;DHT22;7666;50.920;4.628;2022-07-22T11:49:59;24.50;99.90
15131;DHT22;7666;50.920;4.628;2022-07-22T11:52:52;24.30;99.90
15131;DHT22;7666;50.920;4.628;2022-07-22T11:55:38;24.20;99.90
15131;DHT22;7666;50.920;4.628;2022-07-22T12:01:21;24.30;99.90
15131;DHT22;7666;50.920;4.628;2022-07-22T12:04:09;24.20;99.90
15131;DHT22;7666;50.920;4.628;2022-07-22T12:06:58;23.90;99.90
15131;DHT22;7666;50.920;4.628;2022-07-22T12:09:44;24.00;99.90
15131;DHT22;7666;50.920;4.628;2022-07-22T12:12:42;23.70;99.90
15131;DHT22;7666;50.920;4.628;2022-07-22T12:15:29;23.50;99.90
15131;DHT22;7666;50.920;4.628;2022-07-22T12:18:17;23.40;99.90
15131;DHT22;7666;50.920;4.628;2022-07-22T12:21:07;23.60;99.90
15131;DHT22;7666;50.920;4.628;2022-07-22T12:24:05;23.90;99.90
15131;DHT22;7666;50.920;4.628;2022-07-22T12:26:51;24.50;99.90
15131;DHT22;7666;50.920;4.628;2022-07-22T12:35:08;24.30;99.90
15131;DHT22;7666;50.920;4.628;2022-07-22T12:37:55;24.40;99.90
15131;DHT22;7666;50.920;4.628;2022-07-22T12:40:40;24.50;99.90
15131;DHT22;7666;50.920;4.628;2022-07-22T12:43:26;24.60;99.90
15131;DHT22;7666;50.920;4.628;2022-07-22T12:46:13;24.50;99.90
15131;DHT22;7666;50.920;4.628;2022-07-22T12:49:00;24.60;99.90
15131;DHT22;7666;50.920;4.628;2022-07-22T12:52:25;24.60;99.90
15131;DHT22;7666;50.920;4.628;2022-07-22T12:55:11;24.40;99.90
15131;DHT22;7666;50.920;4.628;2022-07-22T12:57:57;24.30;99.90
15131;DHT22;7666;50.920;4.628;2022-07-22T13:00:45;24.20;99.90
15131;DHT22;7666;50.920;4.628;2022-07-22T13:03:32;24.30;99.90
15131;DHT22;7666;50.920;4.628;2022-07-22T13:06:18;24.60;99.90
15131;DHT22;7666;50.920;4.628;2022-07-22T13:09:04;24.30;99.90
15131;DHT22;7666;50.920;4.628;2022-07-22T13:11:50;24.30;99.90
15131;DHT22;7666;50.920;4.628;2022-07-22T13:14:36;24.20;99.90
15131;DHT22;7666;50.920;4.628;2022-07-22T13:17:22;24.20;99.90
15131;DHT22;7666;50.920;4.628;2022-07-22T13:20:09;24.40;99.90
15131;DHT22;7666;50.920;4.628;2022-07-22T13:22:55;24.60;99.90
15131;DHT22;7666;50.920;4.628;2022-07-22T13:25:42;24.80;99.90
15131;DHT22;7666;50.920;4.628;2022-07-22T13:28:28;24.80;99.90
15131;DHT22;7666;50.920;4.628;2022-07-22T13:31:13;24.60;99.90
15131;DHT22;7666;50.920;4.628;2022-07-22T13:33:59;24.60;99.90
15131;DHT22;7666;50.920;4.628;2022-07-22T13:36:45;24.70;99.90
15131;DHT22;7666;50.920;4.628;2022-07-22T13:39:31;25.00;99.90
15131;DHT22;7666;50.920;4.628;2022-07-22T13:42:18;24.70;99.90
15131;DHT22;7666;50.920;4.628;2022-07-22T13:45:06;24.60;99.90
15131;DHT22;7666;50.920;4.628;2022-07-22T13:47:53;24.60;99.90
15131;DHT22;7666;50.920;4.628;2022-07-22T13:50:38;24.70;99.90
15131;DHT22;7666;50.920;4.628;2022-07-22T13:53:24;24.70;99.90
15131;DHT22;7666;50.920;4.628;2022-07-22T13:56:11;24.80;99.90
15131;DHT22;7666;50.920;4.628;2022-07-22T13:58:58;24.60;99.90
15131;DHT22;7666;50.920;4.628;2022-07-22T14:01:44;24.50;99.90
15131;DHT22;7666;50.920;4.628;2022-07-22T14:04:30;24.50;99.90
15131;DHT22;7666;50.920;4.628;2022-07-22T14:07:16;24.50;99.90
15131;DHT22;7666;50.920;4.628;2022-07-22T14:10:03;24.60;99.90
15131;DHT22;7666;50.920;4.628;2022-07-22T14:12:49;24.50;99.90
15131;DHT22;7666;50.920;4.628;2022-07-22T14:15:35;24.60;99.90
15131;DHT22;7666;50.920;4.628;2022-07-22T14:18:21;24.80;99.90
15131;DHT22;7666;50.920;4.628;2022-07-22T14:21:07;24.60;99.90
15131;DHT22;7666;50.920;4.628;2022-07-22T14:23:53;24.50;99.90
15131;DHT22;7666;50.920;4.628;2022-07-22T14:26:39;24.50;99.90
15131;DHT22;7666;50.920;4.628;2022-07-22T14:29:26;24.40;99.90
15131;DHT22;7666;50.920;4.628;2022-07-22T14:32:12;24.30;99.90
15131;DHT22;7666;50.920;4.628;2022-07-22T14:34:58;24.30;99.90
15131;DHT22;7666;50.920;4.628;2022-07-22T14:37:44;24.30;99.90
15131;DHT22;7666;50.920;4.628;2022-07-22T14:40:30;24.20;99.90
15131;DHT22;7666;50.920;4.628;2022-07-22T14:43:16;24.20;99.90
15131;DHT22;7666;50.920;4.628;2022-07-22T14:46:02;24.10;99.90
15131;DHT22;7666;50.920;4.628;2022-07-22T14:48:49;24.20;99.90
15131;DHT22;7666;50.920;4.628;2022-07-22T14:51:38;24.20;99.90
15131;DHT22;7666;50.920;4.628;2022-07-22T14:54:24;23.90;99.90
15131;DHT22;7666;50.920;4.628;2022-07-22T14:57:10;23.80;99.90
15131;DHT22;7666;50.920;4.628;2022-07-22T14:59:56;23.70;99.90
15131;DHT22;7666;50.920;4.628;2022-07-22T15:02:42;23.80;99.90
15131;DHT22;7666;50.920;4.628;2022-07-22T15:05:28;23.80;99.90
15131;DHT22;7666;50.920;4.628;2022-07-22T15:08:14;23.90;99.90
15131;DHT22;7666;50.920;4.628;2022-07-22T15:11:00;23.90;99.90
15131;DHT22;7666;50.920;4.628;2022-07-22T15:13:46;23.80;99.90
15131;DHT22;7666;50.920;4.628;2022-07-22T15:16:32;23.70;99.90
15131;DHT22;7666;50.920;4.628;2022-07-22T15:19:19;23.60;99.90
15131;DHT22;7666;50.920;4.628;2022-07-22T15:22:05;23.30;99.90
15131;DHT22;7666;50.920;4.628;2022-07-22T15:24:51;23.30;99.90
15131;DHT22;7666;50.920;4.628;2022-07-22T15:27:37;23.20;99.90
15131;DHT22;7666;50.920;4.628;2022-07-22T15:30:24;23.20;99.90
15131;DHT22;7666;50.920;4.628;2022-07-22T15:33:10;23.10;99.90
15131;DHT22;7666;50.920;4.628;2022-07-22T15:35:56;23.00;99.90
15131;DHT22;7666;50.920;4.628;2022-07-22T15:38:42;23.10;99.90
15131;DHT22;7666;50.920;4.628;2022-07-22T15:41:27;23.10;99.90
15131;DHT22;7666;50.920;4.628;2022-07-22T15:44:14;23.10;99.90
15131;DHT22;7666;50.920;4.628;2022-07-22T15:47:00;23.10;99.90
15131;DHT22;7666;50.920;4.628;2022-07-22T15:49:46;23.10;99.90
15131;DHT22;7666;50.920;4.628;2022-07-22T15:52:32;23.10;99.90
15131;DHT22;7666;50.920;4.628;2022-07-22T15:55:18;23.20;99.90
15131;DHT22;7666;50.920;4.628;2022-07-22T15:58:04;23.30;99.90
15131;DHT22;7666;50.920;4.628;2022-07-22T16:01:09;23.30;99.90
15131;DHT22;7666;50.920;4.628;2022-07-22T16:03:56;23.20;99.90
15131;DHT22;7666;50.920;4.628;2022-07-22T16:06:42;23.10;99.90
15131;DHT22;7666;50.920;4.628;2022-07-22T16:09:28;23.00;99.90
15131;DHT22;7666;50.920;4.628;2022-07-22T16:12:14;22.90;99.90
15131;DHT22;7666;50.920;4.628;2022-07-22T16:15:00;22.90;99.90
15131;DHT22;7666;50.920;4.628;2022-07-22T16:17:46;22.90;99.90
15131;DHT22;7666;50.920;4.628;2022-07-22T16:20:32;22.80;99.90
15131;DHT22;7666;50.920;4.628;2022-07-22T16:23:18;22.70;99.90
15131;DHT22;7666;50.920;4.628;2022-07-22T16:26:05;22.60;99.90
15131;DHT22;7666;50.920;4.628;2022-07-22T16:28:51;22.50;99.90
15131;DHT22;7666;50.920;4.628;2022-07-22T16:31:37;22.40;99.90
15131;DHT22;7666;50.920;4.628;2022-07-22T16:34:23;22.30;99.90
15131;DHT22;7666;50.920;4.628;2022-07-22T16:37:09;22.20;99.90
15131;DHT22;7666;50.920;4.628;2022-07-22T16:39:54;22.20;99.90
15131;DHT22;7666;50.920;4.628;2022-07-22T16:42:40;22.10;99.90
15131;DHT22;7666;50.920;4.628;2022-07-22T16:45:26;22.10;99.90
15131;DHT22;7666;50.920;4.628;2022-07-22T16:48:14;22.10;99.90
15131;DHT22;7666;50.920;4.628;2022-07-22T16:51:00;22.10;99.90
15131;DHT22;7666;50.920;4.628;2022-07-22T16:53:47;22.20;99.90
15131;DHT22;7666;50.920;4.628;2022-07-22T16:56:33;22.30;99.90
15131;DHT22;7666;50.920;4.628;2022-07-22T16:59:19;22.20;99.90
15131;DHT22;7666;50.920;4.628;2022-07-22T17:02:05;22.20;99.90
15131;DHT22;7666;50.920;4.628;2022-07-22T17:04:51;22.10;99.90
15131;DHT22;7666;50.920;4.628;2022-07-22T17:07:37;22.00;99.90
15131;DHT22;7666;50.920;4.628;2022-07-22T17:10:23;21.90;99.90
15131;DHT22;7666;50.920;4.628;2022-07-22T17:13:09;22.00;99.90
15131;DHT22;7666;50.920;4.628;2022-07-22T17:15:55;21.90;99.90
15131;DHT22;7666;50.920;4.628;2022-07-22T17:18:42;21.90;99.90
15131;DHT22;7666;50.920;4.628;2022-07-22T17:21:28;21.90;99.90
15131;DHT22;7666;50.920;4.628;2022-07-22T17:24:14;21.90;99.90
15131;DHT22;7666;50.920;4.628;2022-07-22T17:27:00;21.80;99.90
15131;DHT22;7666;50.920;4.628;2022-07-22T17:29:46;21.80;99.90
15131;DHT22;7666;50.920;4.628;2022-07-22T17:32:32;21.80;99.90
15131;DHT22;7666;50.920;4.628;2022-07-22T17:35:19;21.70;99.90
15131;DHT22;7666;50.920;4.628;2022-07-22T17:38:05;21.60;99.90
15131;DHT22;7666;50.920;4.628;2022-07-22T17:40:52;21.60;99.90
15131;DHT22;7666;50.920;4.628;2022-07-22T17:43:38;21.50;99.90
15131;DHT22;7666;50.920;4.628;2022-07-22T17:46:24;21.50;99.90
15131;DHT22;7666;50.920;4.628;2022-07-22T17:49:10;21.50;99.90
15131;DHT22;7666;50.920;4.628;2022-07-22T17:51:56;21.40;99.90
15131;DHT22;7666;50.920;4.628;2022-07-22T17:54:42;21.40;99.90
15131;DHT22;7666;50.920;4.628;2022-07-22T17:57:28;21.40;99.90
15131;DHT22;7666;50.920;4.628;2022-07-22T18:00:14;21.40;99.90
15131;DHT22;7666;50.920;4.628;2022-07-22T18:03:01;21.40;99.90